SLSA/SBL METAR and TAF weather

Enter ICAO airport designator
Station Type Date Time Source
SLSA METAR 2020/01/29 12:00 UTC NOAA

SLSA 291200Z 34006KT 9999 BKN015 BKN200 25/24 Q1010


Station Type Date Time Source
SLSA Decoded METAR 2020/01/29 12:00 UTC NOAA

Santa Ana, Bolivia (SLSA) 13-46S 065-26W
Jan 29, 2020 - 07:00 AM EST / 2020.01.29 1200 UTC
Wind: from the NNW (340 degrees) at 7 MPH (6 KT):0
Visibility: greater than 7 mile(s):0
Sky conditions: mostly cloudy
Temperature: 77 F (25 C)
Dew Point: 75 F (24 C)
Relative Humidity: 94%
Pressure (altimeter): 29.83 in. Hg (1010 hPa)
ob: SLSA 291200Z 34006KT 9999 BKN015 BKN200 25/24 Q1010
cycle: 12

Station Type Date Time Source
SLSA TAF 2009/01/07 11:00 UTC NOAA

METAR SLSA 071100Z 00000KT 9999 FEW020 BKN080 26/24 Q1009

Example: see airport list